Time;durP1;ratioP1;P1;durP2;ratioP2;P2;SDS_P1;SDS_P2;PMS_P1;PMS_P2;Temp;Humidity;BMP_temperature;BMP_pressure;BME280_temperature;BME280_humidity;BME280_pressure;Samples;Min_cycle;Max_cycle;Signal;HPM_P1;HPM_P2
2024/02/15 00:02:08;;;;;;;14.80;9.68;;;;;;;11.13;100.00;101651.38;5110889;28;20018;-40
2024/02/15 00:04:34;;;;;;;13.32;9.85;;;;;;;11.20;100.00;101660.28;5110940;28;20100;-40
2024/02/15 00:07:00;;;;;;;14.30;10.15;;;;;;;11.18;100.00;101650.72;5100625;28;20383;-40
2024/02/15 00:09:26;;;;;;;10.95;9.80;;;;;;;11.11;100.00;101647.19;5096708;28;20402;-40
2024/02/15 00:11:51;;;;;;;13.65;10.25;;;;;;;11.17;100.00;101641.75;5096087;28;20035;-40
2024/02/15 00:14:17;;;;;;;15.82;10.77;;;;;;;11.16;100.00;101644.66;5096805;28;20024;-40
2024/02/15 00:16:42;;;;;;;14.43;10.88;;;;;;;11.17;100.00;101649.88;5095956;28;20020;-40
2024/02/15 00:19:07;;;;;;;13.95;10.90;;;;;;;11.17;100.00;101635.50;5096271;28;20038;-41
2024/02/15 00:21:33;;;;;;;17.20;11.07;;;;;;;11.13;100.00;101632.41;5096715;28;20103;-40
2024/02/15 00:24:00;;;;;;;15.30;10.68;;;;;;;11.18;100.00;101640.72;5095880;28;20499;-41
2024/02/15 00:26:26;;;;;;;15.68;11.57;;;;;;;11.11;100.00;101628.25;5095784;28;20483;-39
2024/02/15 00:28:51;;;;;;;14.60;12.13;;;;;;;11.13;100.00;101631.59;5096358;28;20109;-39
2024/02/15 00:31:17;;;;;;;14.95;10.55;;;;;;;11.16;100.00;101644.66;5096535;28;20024;-40
2024/02/15 00:33:42;;;;;;;15.38;11.35;;;;;;;11.16;100.00;101641.97;5096772;28;20052;-40
2024/02/15 00:36:08;;;;;;;14.65;11.20;;;;;;;11.08;100.00;101630.34;5095881;28;20221;-41
2024/02/15 00:38:34;;;;;;;13.65;11.88;;;;;;;11.10;100.00;101635.53;5096264;28;20024;-41
2024/02/15 00:41:00;;;;;;;16.25;11.80;;;;;;;11.17;100.00;101643.63;5095497;28;20039;-41
2024/02/15 00:43:26;;;;;;;14.87;11.63;;;;;;;11.12;100.00;101643.44;5095829;28;20028;-40
2024/02/15 00:45:52;;;;;;;13.93;11.00;;;;;;;11.16;100.00;101647.38;5095449;28;20515;-40
2024/02/15 00:48:17;;;;;;;14.40;11.20;;;;;;;11.18;100.00;101656.13;5095447;28;20112;-40
2024/02/15 00:50:43;;;;;;;14.20;11.07;;;;;;;11.16;100.00;101644.66;5095727;28;20353;-41
2024/02/15 00:53:08;;;;;;;14.95;11.02;;;;;;;11.19;100.00;101652.38;5096207;28;20016;-40
2024/02/15 00:55:33;;;;;;;15.70;10.27;;;;;;;11.16;100.00;101647.38;5095963;28;20441;-40
2024/02/15 00:57:59;;;;;;;14.88;10.75;;;;;;;11.21;100.00;101644.84;5095818;28;20269;-40
2024/02/15 01:00:25;;;;;;;15.68;10.40;;;;;;;11.18;100.00;101648.00;5095727;28;20463;-41
2024/02/15 01:02:52;;;;;;;15.32;10.15;;;;;;;11.20;100.00;101645.91;5095463;28;20074;-40
2024/02/15 01:05:18;;;;;;;19.23;9.82;;;;;;;11.14;100.00;101633.25;5095339;28;20024;-40
2024/02/15 01:07:44;;;;;;;15.23;9.60;;;;;;;11.21;100.00;101647.56;5095627;28;20034;-40
2024/02/15 01:10:09;;;;;;;16.60;9.13;;;;;;;11.23;100.00;101642.78;5095645;28;20028;-41
2024/02/15 01:12:35;;;;;;;13.57;8.98;;;;;;;11.21;100.00;101645.69;5095487;28;20035;-40
2024/02/15 01:15:00;;;;;;;15.23;9.27;;;;;;;11.22;100.00;101636.50;5094762;28;20032;-40
2024/02/15 01:17:25;;;;;;;16.42;9.77;;;;;;;11.17;100.00;101638.22;5094576;28;20273;-40
2024/02/15 01:19:53;;;;;;;12.82;8.88;;;;;;;11.16;100.00;101628.44;5095001;28;20459;-40
2024/02/15 01:22:18;;;;;;;16.65;8.68;;;;;;;11.14;100.00;101617.81;5094708;28;20582;-40
2024/02/15 01:24:43;;;;;;;15.48;8.68;;;;;;;11.22;100.00;101627.56;5095285;28;20036;-40
2024/02/15 01:27:09;;;;;;;11.73;8.27;;;;;;;11.19;100.00;101626.13;5094730;28;20486;-40
2024/02/15 01:29:35;;;;;;;12.63;7.68;;;;;;;11.18;100.00;101629.06;5094926;28;20644;-41
2024/02/15 01:32:02;;;;;;;;;;;;;;;11.21;100.00;101631.31;5095264;28;20444;-41
2024/02/15 01:34:27;;;;;;;13.23;6.88;;;;;;;11.10;100.00;101622.00;5094727;28;19919;-40
2024/02/15 01:36:53;;;;;;;15.25;7.03;;;;;;;11.10;100.00;101624.72;5094774;28;20024;-40
2024/02/15 01:39:18;;;;;;;13.07;7.30;;;;;;;11.17;100.00;101632.78;5094516;28;20063;-40
2024/02/15 01:41:48;;;;;;;12.27;6.75;;;;;;;11.14;100.00;101617.00;5094343;28;20278;-40
2024/02/15 01:44:13;;;;;;;13.02;7.07;;;;;;;11.17;100.00;101628.19;5094295;28;20535;-41
2024/02/15 01:46:39;;;;;;;10.93;6.63;;;;;;;11.17;100.00;101619.25;5095351;28;20032;-40
2024/02/15 01:49:07;;;;;;;;;;;;;;;11.19;100.00;101620.72;5095293;28;20344;-39
2024/02/15 01:51:33;;;;;;;11.48;6.40;;;;;;;11.12;100.00;101616.38;5094401;28;19929;-40
2024/02/15 01:53:59;;;;;;;12.45;6.90;;;;;;;11.12;100.00;101617.19;5092746;28;20111;-41
2024/02/15 01:56:25;;;;;;;;;;;;;;;11.18;100.00;101608.22;5094834;28;20494;-39
2024/02/15 01:58:51;;;;;;;11.35;6.32;;;;;;;11.09;100.00;101607.66;5095102;28;19912;-40
2024/02/15 02:01:16;;;;;;;;;;;;;;;11.14;100.00;101617.00;5094709;28;20028;-40
2024/02/15 02:03:43;;;;;;;9.80;5.45;;;;;;;11.08;100.00;101607.88;5095086;28;19953;-39
2024/02/15 02:06:09;;;;;;;15.63;6.32;;;;;;;11.04;100.00;101596.63;5094495;28;20111;-40
2024/02/15 02:08:35;;;;;;;12.32;6.10;;;;;;;10.97;100.00;101593.13;5094745;28;20020;-40
2024/02/15 02:11:01;;;;;;;11.10;5.85;;;;;;;11.05;100.00;101603.69;5094658;28;20035;-40
2024/02/15 02:13:27;;;;;;;15.60;6.30;;;;;;;11.00;100.00;101583.75;5094070;28;20077;-39
2024/02/15 02:15:52;;;;;;;13.32;5.63;;;;;;;10.99;100.00;101592.91;5093724;28;20430;-40
2024/02/15 02:18:18;;;;;;;11.38;5.75;;;;;;;11.04;100.00;101591.22;5094313;28;20032;-40
2024/02/15 02:20:43;;;;;;;13.98;5.78;;;;;;;11.05;100.00;101594.75;5093994;28;20479;-40
2024/02/15 02:23:14;;;;;;;11.80;5.53;;;;;;;11.02;100.00;101587.88;5094483;28;20074;-40
2024/02/15 02:25:42;;;;;;;11.10;4.95;;;;;;;10.97;100.00;101587.69;5093839;28;20319;-40
2024/02/15 02:28:08;;;;;;;10.93;5.05;;;;;;;10.97;100.00;101585.00;5093890;28;20028;-40
2024/02/15 02:30:34;;;;;;;11.70;5.57;;;;;;;10.93;100.00;101582.94;5093539;28;20028;-40
2024/02/15 02:32:59;;;;;;;;;;;;;;;11.03;100.00;101594.97;5094778;28;20024;-40
2024/02/15 02:35:25;;;;;;;13.73;5.95;;;;;;;10.98;100.00;101589.38;5093954;28;19935;-40
2024/02/15 02:37:53;;;;;;;10.55;5.18;;;;;;;10.93;100.00;101572.97;5094351;28;20028;-40
2024/02/15 02:40:18;;;;;;;11.43;5.55;;;;;;;10.94;100.00;101595.44;5093407;28;20024;-39
2024/02/15 02:42:53;;;;;;;10.73;5.38;;;;;;;10.93;100.00;101583.78;5094223;28;20106;-39
2024/02/15 02:45:19;;;;;;;16.55;5.90;;;;;;;10.93;100.00;101581.09;5093388;28;20117;-40
2024/02/15 02:47:46;;;;;;;11.77;5.53;;;;;;;10.81;100.00;101559.28;5093590;28;20035;-39
2024/02/15 02:50:12;;;;;;;14.75;5.60;;;;;;;10.93;100.00;101577.53;5094413;28;20459;-39
2024/02/15 02:52:39;;;;;;;12.43;5.82;;;;;;;10.95;100.00;101580.88;5094098;28;20024;-39
2024/02/15 02:55:08;;;;;;;17.10;5.68;;;;;;;10.95;100.00;101581.69;5093698;28;20094;-39
2024/02/15 02:57:39;;;;;;;12.27;5.18;;;;;;;10.95;100.00;101580.88;5094025;28;20479;-39
2024/02/15 03:00:10;;;;;;;13.65;5.95;;;;;;;10.94;100.00;101577.34;5093265;28;20035;-39
2024/02/15 03:02:36;;;;;;;14.35;5.32;;;;;;;10.96;100.00;101575.22;5094039;28;20015;-40
2024/02/15 03:05:05;;;;;;;13.02;5.53;;;;;;;10.97;100.00;101568.75;5093997;28;20529;-40
2024/02/15 03:07:38;;;;;;;14.07;4.88;;;;;;;10.96;100.00;101561.69;5093372;28;20035;-40
2024/02/15 03:10:04;;;;;;;10.57;5.53;;;;;;;10.94;100.00;101558.38;5094164;28;20025;-40
2024/02/15 03:12:30;;;;;;;10.52;4.80;;;;;;;11.01;100.00;101574.59;5093379;28;20349;-40
2024/02/15 03:14:56;;;;;;;13.27;5.60;;;;;;;10.96;100.00;101569.81;5093524;28;20368;-40
2024/02/15 03:17:23;;;;;;;13.00;5.35;;;;;;;10.98;100.00;101564.19;5093566;28;20075;-40
2024/02/15 03:19:48;;;;;;;15.32;5.68;;;;;;;10.99;100.00;101569.41;5093268;28;20089;-40
2024/02/15 03:22:14;;;;;;;12.13;4.70;;;;;;;10.95;100.00;101554.63;5094080;28;20028;-40
2024/02/15 03:24:40;;;;;;;14.75;4.68;;;;;;;11.01;100.00;101559.16;5092995;28;20462;-40
2024/02/15 03:27:05;;;;;;;16.42;5.75;;;;;;;10.97;100.00;101552.53;5094033;28;20028;-40
2024/02/15 03:29:31;;;;;;;15.60;5.53;;;;;;;10.97;100.00;101552.53;5093304;28;20032;-40
2024/02/15 03:31:56;;;;;;;11.77;4.70;;;;;;;11.04;100.00;101558.75;5093188;28;20024;-40
2024/02/15 03:34:23;;;;;;;11.35;4.63;;;;;;;11.05;100.00;101563.09;5093370;28;20270;-40
2024/02/15 03:36:53;;;;;;;12.55;5.38;;;;;;;11.03;100.00;101562.50;5092822;28;20071;-40
2024/02/15 03:39:19;;;;;;;12.65;5.32;;;;;;;11.03;100.00;101559.81;5093731;28;20036;-40
2024/02/15 03:41:45;;;;;;;11.02;4.72;;;;;;;10.98;100.00;101550.63;5094671;28;20432;-40
2024/02/15 03:44:11;;;;;;;11.45;4.90;;;;;;;11.04;100.00;101563.34;5097222;28;20028;-40
2024/02/15 03:46:37;;;;;;;8.85;4.75;;;;;;;11.03;100.00;101554.38;5096564;28;20094;-40
2024/02/15 03:49:02;;;;;;;16.70;5.00;;;;;;;11.04;100.00;101568.75;5097443;28;20032;-40
2024/02/15 03:51:27;;;;;;;12.73;4.73;;;;;;;11.03;100.00;101557.09;5096549;28;20020;-40
2024/02/15 03:53:53;;;;;;;14.67;5.00;;;;;;;11.02;100.00;101563.53;5097026;28;20016;-40
2024/02/15 03:56:21;;;;;;;8.70;4.68;;;;;;;11.04;100.00;101552.50;5096435;28;20079;-41
2024/02/15 03:58:46;;;;;;;11.20;4.80;;;;;;;11.04;100.00;101547.91;5097188;28;20020;-41
2024/02/15 04:01:13;;;;;;;12.27;4.50;;;;;;;10.96;100.00;101539.22;5097174;28;20111;-40
2024/02/15 04:03:39;;;;;;;13.50;4.93;;;;;;;11.02;100.00;101554.59;5096882;28;20278;-41
2024/02/15 04:06:05;;;;;;;;;;;;;;;11.09;100.00;101545.41;5096948;28;20093;-41
2024/02/15 04:08:30;;;;;;;7.85;3.80;;;;;;;10.99;100.00;101542.31;5097011;28;19912;-40
2024/02/15 04:10:57;;;;;;;6.53;3.47;;;;;;;11.03;100.00;101557.09;5096424;28;20383;-40
2024/02/15 04:13:23;;;;;;;11.02;4.00;;;;;;;11.06;100.00;101562.06;5096357;28;20255;-40
2024/02/15 04:15:50;;;;;;;9.45;3.88;;;;;;;11.07;100.00;101562.88;5096491;28;20035;-40
2024/02/15 04:18:16;;;;;;;11.55;3.90;;;;;;;11.06;100.00;101559.34;5096293;28;20064;-40
2024/02/15 04:20:44;;;;;;;8.27;3.50;;;;;;;11.07;100.00;101560.16;5095917;28;20051;-40
2024/02/15 04:23:11;;;;;;;13.10;4.50;;;;;;;11.09;100.00;101558.94;5096520;28;20059;-40
2024/02/15 04:25:36;;;;;;;10.20;3.90;;;;;;;11.11;100.00;101557.88;5096388;28;20028;-40
2024/02/15 04:28:03;;;;;;;10.33;3.63;;;;;;;11.11;100.00;101555.16;5096459;28;20028;-40
2024/02/15 04:30:32;;;;;;;7.07;3.20;;;;;;;11.12;100.00;101551.41;5096049;28;20298;-40
2024/02/15 04:32:57;;;;;;;8.43;3.22;;;;;;;11.09;100.00;101547.28;5095680;28;20498;-40
2024/02/15 04:35:24;;;;;;;9.23;3.23;;;;;;;11.09;100.00;101541.84;5095883;28;20028;-40
2024/02/15 04:37:51;;;;;;;10.15;3.67;;;;;;;11.03;100.00;101531.91;5096501;28;20270;-39
2024/02/15 04:40:18;;;;;;;9.88;3.45;;;;;;;11.07;100.00;101539.34;5096148;28;20031;-40
2024/02/15 04:42:45;;;;;;;10.82;4.10;;;;;;;11.11;100.00;101547.03;5095761;28;20031;-40
2024/02/15 04:45:13;;;;;;;9.75;3.05;;;;;;;11.07;100.00;101528.53;5096094;28;20035;-40
2024/02/15 04:47:40;;;;;;;8.52;3.13;;;;;;;11.07;100.00;101525.81;5095459;28;20040;-39
2024/02/15 04:50:06;;;;;;;10.60;3.38;;;;;;;11.08;100.00;101532.91;5096530;28;20028;-40
2024/02/15 04:52:32;;;;;;;8.88;3.03;;;;;;;11.08;100.00;101521.25;5095549;28;20077;-39
2024/02/15 04:55:00;;;;;;;6.20;2.90;;;;;;;11.07;100.00;101525.00;5095809;28;20417;-39
2024/02/15 04:57:27;;;;;;;7.63;2.80;;;;;;;11.08;100.00;101529.38;5095555;28;20294;-39
2024/02/15 04:59:53;;;;;;;9.13;3.17;;;;;;;11.06;100.00;101520.63;5095793;28;20047;-39
2024/02/15 05:02:19;;;;;;;7.18;2.92;;;;;;;11.03;100.00;101511.09;5095149;28;20028;-39
2024/02/15 05:04:45;;;;;;;6.22;2.85;;;;;;;11.07;100.00;101519.56;5095938;28;20121;-40
2024/02/15 05:07:10;;;;;;;9.20;2.90;;;;;;;11.08;100.00;101523.97;5095325;28;20524;-40
2024/02/15 05:09:36;;;;;;;6.95;2.80;;;;;;;11.09;100.00;101523.75;5095669;28;20032;-39
2024/02/15 05:12:05;;;;;;;7.50;2.87;;;;;;;10.99;100.00;101512.56;5095528;28;20108;-40
2024/02/15 05:14:30;;;;;;;9.38;2.70;;;;;;;11.12;100.00;101535.16;5095425;28;20289;-39
2024/02/15 05:16:56;;;;;;;8.02;2.90;;;;;;;11.12;100.00;101527.03;5110879;28;20032;-40
2024/02/15 05:19:21;;;;;;;8.30;2.40;;;;;;;11.08;100.00;101532.09;5095141;28;20028;-40
2024/02/15 05:21:47;;;;;;;5.97;2.70;;;;;;;11.13;100.00;101542.25;5095573;28;20024;-40
2024/02/15 05:24:16;;;;;;;6.93;2.65;;;;;;;11.12;100.00;101543.28;5094730;28;20649;-40
2024/02/15 05:26:46;;;;;;;5.85;2.70;;;;;;;11.14;100.00;101544.75;5094971;28;20024;-40
2024/02/15 05:29:12;;;;;;;8.57;2.70;;;;;;;11.06;100.00;101543.09;5095492;28;20130;-40
2024/02/15 05:31:38;;;;;;;11.63;3.33;;;;;;;11.15;100.00;101554.50;5094826;28;20470;-40
2024/02/15 05:34:04;;;;;;;7.35;2.28;;;;;;;11.16;100.00;101552.63;5094862;28;20039;-40
2024/02/15 05:36:30;;;;;;;7.75;2.40;;;;;;;11.16;100.00;101544.50;5094761;28;20058;-40
2024/02/15 05:38:57;;;;;;;5.43;2.67;;;;;;;11.09;100.00;101541.84;5094494;28;20107;-40
2024/02/15 05:41:22;;;;;;;8.85;2.75;;;;;;;11.13;100.00;101548.50;5094736;28;20035;-40
2024/02/15 05:43:48;;;;;;;9.38;3.00;;;;;;;11.07;100.00;101525.81;5094488;28;20036;-41
2024/02/15 05:46:14;;;;;;;7.05;2.63;;;;;;;11.09;100.00;101526.44;5094374;28;20028;-40
2024/02/15 05:48:40;;;;;;;9.52;2.88;;;;;;;11.16;100.00;101536.41;5094710;28;20482;-40
2024/02/15 05:51:08;;;;;;;7.90;2.75;;;;;;;11.13;100.00;101523.31;5094500;28;20028;-40
2024/02/15 05:53:35;;;;;;;9.52;3.50;;;;;;;11.13;100.00;101515.19;5094474;28;20073;-40
2024/02/15 05:56:03;;;;;;;7.75;3.15;;;;;;;11.09;100.00;101512.09;5094116;28;20052;-40
2024/02/15 05:58:29;;;;;;;7.55;2.78;;;;;;;11.02;100.00;101495.88;5094376;28;20051;-40
2024/02/15 06:00:55;;;;;;;10.55;3.33;;;;;;;11.08;100.00;101505.84;5093975;28;20032;-40
2024/02/15 06:03:26;;;;;;;9.45;3.00;;;;;;;10.99;100.00;101499.03;5094816;28;20032;-40
2024/02/15 06:05:51;;;;;;;5.75;2.42;;;;;;;11.05;100.00;101490.03;5093933;28;20365;-40
2024/02/15 06:08:17;;;;;;;8.10;2.77;;;;;;;11.04;100.00;101493.78;5094515;28;20035;-39
2024/02/15 06:10:43;;;;;;;;;;;;;;;11.09;100.00;101479.59;5094544;28;20032;-40
2024/02/15 06:13:09;;;;;;;11.20;4.85;;;;;;;10.99;100.00;101457.59;5094398;28;19912;-39
2024/02/15 06:15:35;;;;;;;9.25;3.80;;;;;;;10.98;100.00;101436.97;5094549;28;20085;-39
2024/02/15 06:18:01;;;;;;;7.78;3.05;;;;;;;10.98;100.00;101445.97;5094619;28;20119;-40
2024/02/15 06:20:29;;;;;;;8.48;2.90;;;;;;;10.98;100.00;101453.22;5094640;28;20480;-40
2024/02/15 06:22:55;;;;;;;7.57;4.05;;;;;;;10.95;100.00;101462.63;5093626;28;20413;-40
2024/02/15 06:25:21;;;;;;;9.25;2.80;;;;;;;10.95;100.00;101459.91;5094226;28;20028;-40
2024/02/15 06:27:48;;;;;;;7.13;3.08;;;;;;;10.94;100.00;101460.16;5094211;28;20032;-40
2024/02/15 06:41:10;;;;;;;9.52;3.65;;;;;;;10.90;100.00;101458.91;5094250;28;20100;-40
2024/02/15 06:43:36;;;;;;;7.03;3.08;;;;;;;10.89;100.00;101454.56;5093343;28;20451;-40
2024/02/15 06:46:02;;;;;;;9.35;3.55;;;;;;;10.84;100.00;101457.91;5093653;28;20475;-40
2024/02/15 06:48:28;;;;;;;;;;;;;;;10.99;100.00;101476.56;5094331;28;20403;-39
2024/02/15 06:50:53;;;;;;;7.43;2.70;;;;;;;10.96;100.00;101485.94;5093479;28;19908;-39
2024/02/15 06:53:20;;;;;;;9.03;3.00;;;;;;;10.96;100.00;101483.22;5093661;28;20375;-39
2024/02/15 06:55:48;;;;;;;7.63;3.03;;;;;;;10.97;100.00;101498.41;5094068;28;20294;-39
2024/02/15 06:58:15;;;;;;;6.80;2.90;;;;;;;10.93;100.00;101497.19;5094037;28;20455;-39
2024/02/15 07:00:42;;;;;;;6.70;3.10;;;;;;;10.92;100.00;101494.69;5093485;28;20064;-40
2024/02/15 07:03:08;;;;;;;6.22;3.20;;;;;;;11.00;100.00;101513.38;5093803;28;20103;-40
2024/02/15 07:05:33;;;;;;;9.40;3.00;;;;;;;11.02;100.00;101503.16;5093420;28;20566;-39
2024/02/15 07:07:59;;;;;;;6.82;2.75;;;;;;;11.03;100.00;101507.56;5093509;28;20020;-39
2024/02/15 07:10:24;;;;;;;6.78;3.25;;;;;;;11.03;100.00;101502.97;5093691;28;20029;-40
2024/02/15 07:12:50;;;;;;;6.22;2.70;;;;;;;11.04;100.00;101495.66;5093700;28;20036;-40
2024/02/15 07:15:17;;;;;;;5.45;2.72;;;;;;;11.02;100.00;101484.22;5093052;28;20031;-40
2024/02/15 07:17:42;;;;;;;6.30;2.70;;;;;;;11.02;100.00;101487.75;5097108;28;20035;-40
2024/02/15 07:20:10;;;;;;;5.70;3.20;;;;;;;10.97;100.00;101471.34;5097807;28;20024;-40
2024/02/15 07:22:37;;;;;;;4.72;2.65;;;;;;;10.98;100.00;101466.75;5097095;28;20347;-40
2024/02/15 07:25:03;;;;;;;6.90;3.10;;;;;;;11.04;100.00;101484.84;5097879;28;20056;-40
2024/02/15 07:27:28;;;;;;;8.07;2.90;;;;;;;10.96;100.00;101464.28;5097280;28;20120;-41
2024/02/15 07:29:54;;;;;;;4.73;2.53;;;;;;;11.06;100.00;101475.44;5097426;28;20139;-41
2024/02/15 07:32:19;;;;;;;4.57;2.60;;;;;;;11.06;100.00;101478.16;5097167;28;20054;-41
2024/02/15 07:34:47;;;;;;;6.97;2.78;;;;;;;11.06;100.00;101480.03;5097656;28;20028;-40
2024/02/15 07:37:15;;;;;;;5.82;3.03;;;;;;;11.06;100.00;101485.44;5097089;28;20035;-40
2024/02/15 07:39:41;;;;;;;7.68;3.08;;;;;;;11.07;100.00;101487.09;5097336;28;20449;-41
2024/02/15 07:42:08;;;;;;;6.30;2.90;;;;;;;11.00;100.00;101468.22;5097097;28;20107;-40
2024/02/15 07:44:36;;;;;;;5.57;2.95;;;;;;;11.07;100.00;101478.97;5096649;28;20494;-41
2024/02/15 07:47:02;;;;;;;7.07;2.97;;;;;;;11.07;100.00;101476.28;5097671;28;20390;-41
2024/02/15 07:49:27;;;;;;;8.82;3.05;;;;;;;11.07;100.00;101485.22;5096912;28;20081;-40
2024/02/15 07:51:52;;;;;;;5.93;2.80;;;;;;;11.07;100.00;101471.69;5096836;28;20063;-41
2024/02/15 07:54:23;;;;;;;4.80;2.70;;;;;;;11.09;100.00;101485.03;5096850;28;20062;-41
2024/02/15 07:56:49;;;;;;;5.82;3.05;;;;;;;11.09;100.00;101479.59;5097892;28;20286;-41
2024/02/15 07:59:16;;;;;;;7.35;2.95;;;;;;;11.09;100.00;101490.44;5096999;28;20520;-41
2024/02/15 08:01:42;;;;;;;4.20;2.80;;;;;;;11.03;100.00;101470.50;5096885;28;20454;-41
2024/02/15 08:04:08;;;;;;;;;;;;;;;11.14;100.00;101481.66;5097857;28;20414;-40
2024/02/15 08:06:33;;;;;;;5.88;2.78;;;;;;;11.09;100.00;101479.59;5097038;28;19908;-40
2024/02/15 08:08:59;;;;;;;7.65;3.08;;;;;;;11.07;100.00;101476.28;5097363;28;20431;-40
2024/02/15 08:11:26;;;;;;;7.63;2.60;;;;;;;11.06;100.00;101461.91;5096228;28;20028;-41
2024/02/15 08:13:54;;;;;;;5.80;2.95;;;;;;;11.04;100.00;101460.50;5097184;28;20114;-40
2024/02/15 08:16:22;;;;;;;7.75;3.10;;;;;;;11.11;100.00;101471.25;5095942;28;20062;-40
2024/02/15 08:18:57;;;;;;;7.68;2.63;;;;;;;11.12;100.00;101472.91;5096034;28;20066;-40
2024/02/15 08:21:30;;;;;;;6.95;2.60;;;;;;;11.11;100.00;101472.09;5096572;28;20356;-41
2024/02/15 08:23:56;;;;;;;6.07;2.72;;;;;;;11.12;100.00;101468.31;5097041;28;20055;-40
2024/02/15 08:26:22;;;;;;;5.00;2.30;;;;;;;11.16;100.00;101474.97;5096160;28;20063;-41
2024/02/15 08:28:47;;;;;;;7.10;2.42;;;;;;;11.18;100.00;101466.63;5095339;28;20266;-41
2024/02/15 08:31:15;;;;;;;4.93;2.20;;;;;;;11.18;100.00;101464.75;5096616;28;20070;-41
2024/02/15 08:33:44;;;;;;;5.72;2.40;;;;;;;11.20;100.00;101467.25;5096578;28;20430;-40
2024/02/15 08:36:10;;;;;;;4.05;2.03;;;;;;;11.22;100.00;101452.41;5095818;28;20060;-39
2024/02/15 08:38:37;;;;;;;8.63;2.70;;;;;;;11.20;100.00;101451.00;5096140;28;20130;-40
2024/02/15 08:41:04;;;;;;;5.25;2.17;;;;;;;11.25;100.00;101456.56;5095763;28;20024;-40
2024/02/15 08:43:32;;;;;;;6.22;2.38;;;;;;;11.25;100.00;101462.00;5095836;28;20024;-40
2024/02/15 08:45:58;;;;;;;6.53;2.20;;;;;;;11.19;100.00;101450.16;5095916;28;20055;-39
2024/02/15 08:48:24;;;;;;;4.07;2.00;;;;;;;11.29;100.00;101457.78;5095758;28;20051;-39
2024/02/15 08:50:49;;;;;;;6.90;2.22;;;;;;;11.28;100.00;101456.16;5095523;28;20028;-39
2024/02/15 08:53:15;;;;;;;5.53;2.05;;;;;;;11.29;100.00;101458.63;5096159;28;20093;-39
2024/02/15 08:55:40;;;;;;;5.07;2.40;;;;;;;11.29;100.00;101458.63;5095561;28;20514;-39
2024/02/15 08:58:06;;;;;;;7.13;3.08;;;;;;;11.25;100.00;101440.34;5096069;28;20055;-40
2024/02/15 09:00:31;;;;;;;6.03;2.25;;;;;;;11.32;100.00;101452.78;5095272;28;20028;-40
2024/02/15 09:02:57;;;;;;;4.88;2.03;;;;;;;11.31;100.00;101450.28;5095297;28;20107;-40
2024/02/15 09:05:23;;;;;;;5.88;2.15;;;;;;;11.32;100.00;101441.94;5095345;28;20080;-40
2024/02/15 09:07:49;;;;;;;4.00;2.03;;;;;;;11.35;100.00;101456.91;5095063;28;20050;-40
2024/02/15 09:10:17;;;;;;;6.22;1.98;;;;;;;11.32;100.00;101443.81;5096124;28;20028;-40
2024/02/15 09:12:44;;;;;;;6.32;1.92;;;;;;;11.39;100.00;101451.88;5094939;28;20024;-40
2024/02/15 09:15:14;;;;;;;7.18;2.72;;;;;;;11.39;100.00;101450.00;5094855;28;20111;-40
2024/02/15 09:17:39;;;;;;;7.75;2.55;;;;;;;11.34;100.00;101439.84;5095117;28;20024;-40
2024/02/15 09:20:14;;;;;;;5.33;1.87;;;;;;;11.37;100.00;101441.28;5095148;28;20464;-40
2024/02/15 09:22:41;;;;;;;5.28;2.05;;;;;;;11.45;100.00;101449.09;5095879;28;20594;-40
2024/02/15 09:25:07;;;;;;;4.15;2.00;;;;;;;11.47;100.00;101452.44;5095567;28;20387;-40
2024/02/15 09:27:33;;;;;;;7.00;2.30;;;;;;;11.47;100.00;101454.31;5095204;28;20028;-40
2024/02/15 09:29:58;;;;;;;3.30;1.90;;;;;;;11.50;100.00;101454.69;5095267;28;20058;-40
2024/02/15 09:32:23;;;;;;;6.33;2.47;;;;;;;11.51;100.00;101456.34;5095215;28;20028;-40
2024/02/15 09:34:49;;;;;;;6.17;2.17;;;;;;;11.46;100.00;101442.63;5094816;28;20266;-40
2024/02/15 09:37:15;;;;;;;7.00;2.30;;;;;;;11.56;100.00;101459.22;5094530;28;20387;-40
2024/02/15 09:39:40;;;;;;;5.85;2.50;;;;;;;11.58;100.00;101464.44;5094498;28;20111;-40
2024/02/15 09:42:06;;;;;;;4.63;2.20;;;;;;;11.59;100.00;101463.38;5095232;28;20115;-41
2024/02/15 09:44:31;;;;;;;5.57;2.47;;;;;;;11.58;100.00;101462.53;5094407;28;20110;-40
2024/02/15 09:47:05;;;;;;;8.60;2.70;;;;;;;11.58;100.00;101462.53;5094874;28;20039;-41
2024/02/15 09:49:39;;;;;;;6.65;2.05;;;;;;;11.60;100.00;101457.72;5095114;28;20119;-41
2024/02/15 09:52:11;;;;;;;6.75;2.38;;;;;;;11.64;100.00;101458.09;5094785;28;20047;-40
2024/02/15 09:54:44;;;;;;;7.03;2.40;;;;;;;11.62;100.00;101443.16;5094631;28;20080;-40
2024/02/15 09:57:11;;;;;;;5.57;2.20;;;;;;;11.68;100.00;101451.19;5094714;28;20111;-40
2024/02/15 09:59:37;;;;;;;7.22;2.40;;;;;;;11.70;100.00;101453.66;5094389;28;20028;-40
2024/02/15 10:02:02;;;;;;;;;;;;;;;11.78;100.00;101445.25;5094507;28;20514;-40
2024/02/15 10:04:28;;;;;;;5.15;2.08;;;;;;;11.71;100.00;101447.19;5094295;28;19955;-40
2024/02/15 10:06:53;;;;;;;5.80;2.13;;;;;;;11.60;100.00;101433.34;5093057;28;20056;-40
2024/02/15 10:09:31;;;;;;;4.70;2.08;;;;;;;11.72;100.00;101441.56;5094514;28;20035;-40
2024/02/15 10:11:58;;;;;;;5.88;2.00;;;;;;;11.82;100.00;101457.34;5093833;28;20471;-40
2024/02/15 10:14:25;;;;;;;6.40;2.03;;;;;;;11.84;100.00;101447.91;5094147;28;20069;-40
2024/02/15 10:16:52;;;;;;;4.82;1.90;;;;;;;11.87;100.00;101459.38;5094054;28;20063;-40
2024/02/15 10:19:18;;;;;;;4.38;1.70;;;;;;;11.90;100.00;101453.50;5094325;28;20024;-40
2024/02/15 10:21:43;;;;;;;4.88;1.70;;;;;;;11.93;100.00;101451.16;5093968;28;20482;-40
2024/02/15 10:24:09;;;;;;;6.57;1.92;;;;;;;11.99;100.00;101458.41;5094114;28;20459;-40
2024/02/15 10:26:36;;;;;;;4.32;1.73;;;;;;;11.96;100.00;101442.59;5093917;28;20028;-41
2024/02/15 10:29:11;;;;;;;5.70;2.00;;;;;;;12.08;100.00;101450.81;5093607;28;20032;-41
2024/02/15 10:31:38;;;;;;;6.68;1.77;;;;;;;12.06;100.00;101442.91;5093548;28;20027;-41
2024/02/15 10:34:06;;;;;;;4.47;1.58;;;;;;;12.13;100.00;101447.41;5093864;28;20024;-41
2024/02/15 10:36:34;;;;;;;5.00;1.52;;;;;;;12.17;100.00;101454.03;5094519;28;20024;-40
2024/02/15 10:39:19;;;;;;;5.70;1.98;;;;;;;12.24;100.00;101460.19;5094577;28;20115;-40
2024/02/15 10:41:52;;;;;;;5.65;1.70;;;;;;;12.25;100.00;101460.00;5094084;28;20023;-41
2024/02/15 10:44:18;;;;;;;6.82;2.10;;;;;;;12.28;100.00;101453.28;5093737;28;20031;-40
2024/02/15 10:46:51;;;;;;;6.20;2.27;;;;;;;12.31;100.00;101445.53;5094208;28;20024;-41
2024/02/15 10:49:21;;;;;;;3.42;1.70;;;;;;;12.31;100.00;101450.13;5093325;28;20266;-41
2024/02/15 10:52:04;;;;;;;5.03;2.00;;;;;;;12.35;100.00;101451.31;5093191;28;20085;-47
2024/02/15 10:54:51;;;;;;;6.68;1.80;;;;;;;12.28;100.00;101440.53;5093822;28;20042;-40
2024/02/15 10:57:22;;;;;;;4.30;1.85;;;;;;;12.32;100.00;101443.63;5094186;28;20419;-40
2024/02/15 10:59:58;;;;;;;6.63;2.05;;;;;;;12.34;100.00;101444.22;5093537;28;20028;-40
2024/02/15 11:02:29;;;;;;;4.25;1.75;;;;;;;12.32;100.00;101436.31;5093756;28;20031;-40
2024/02/15 11:05:03;;;;;;;3.88;1.75;;;;;;;12.39;100.00;101438.94;5093223;28;20035;-40
2024/02/15 11:07:30;;;;;;;5.38;2.22;;;;;;;12.35;100.00;101426.91;5093484;28;20041;-40
2024/02/15 11:09:56;;;;;;;3.95;2.33;;;;;;;12.41;100.00;101433.31;5094069;28;20383;-40
2024/02/15 11:12:26;;;;;;;3.50;1.45;;;;;;;12.42;100.00;101435.78;5093431;28;20028;-40
2024/02/15 11:14:53;;;;;;;5.72;1.70;;;;;;;12.42;100.00;101432.25;5093842;28;20031;-40
2024/02/15 11:17:37;;;;;;;5.05;1.77;;;;;;;12.49;100.00;101436.53;5093057;28;20058;-40
2024/02/15 11:20:08;;;;;;;4.50;1.70;;;;;;;12.42;100.00;101421.41;5093080;28;20024;-41
2024/02/15 11:22:35;;;;;;;5.07;1.85;;;;;;;12.52;100.00;101436.06;5093342;28;20032;-40
2024/02/15 11:25:08;;;;;;;5.18;1.70;;;;;;;12.55;100.00;101434.78;5093633;28;20064;-40
2024/02/15 11:27:38;;;;;;;5.47;1.60;;;;;;;12.58;100.00;101432.41;5093623;28;20035;-40